createdAt,value
2023-05-17T00:02:25.083Z,31.40
2023-05-17T00:04:57.583Z,33.10
2023-05-17T00:08:00.040Z,44.60
2023-05-17T00:10:32.720Z,35.30
2023-05-17T00:13:08.952Z,38.50
2023-05-17T00:15:39.138Z,31.70
2023-05-17T00:18:09.955Z,34.00
2023-05-17T00:20:43.566Z,27.10
2023-05-17T00:23:17.950Z,32.30
2023-05-17T00:25:46.816Z,29.00
2023-05-17T00:28:16.311Z,25.60
2023-05-17T00:30:53.849Z,30.50
2023-05-17T00:33:26.369Z,28.30
2023-05-17T00:35:54.095Z,20.50
2023-05-17T00:38:22.052Z,24.30
2023-05-17T00:41:05.293Z,25.80
2023-05-17T00:43:33.654Z,16.10
2023-05-17T00:46:03.838Z,17.30
2023-05-17T00:48:33.051Z,8.70
2023-05-17T00:51:01.656Z,10.50
2023-05-17T00:53:29.299Z,8.80
2023-05-17T00:55:59.448Z,4.50
2023-05-17T00:58:46.898Z,8.90
2023-05-17T01:01:18.800Z,7.30
2023-05-17T01:03:48.452Z,12.40
2023-05-17T01:06:20.850Z,6.00
2023-05-17T01:09:43.604Z,6.70
2023-05-17T01:15:27.226Z,5.80
2023-05-17T01:18:20.626Z,9.20
2023-05-17T01:21:30.748Z,4.20
2023-05-17T01:24:41.428Z,9.00
2023-05-17T01:27:09.513Z,10.30
2023-05-17T01:29:38.483Z,5.80
2023-05-17T01:32:08.240Z,5.80
2023-05-17T01:34:39.086Z,10.50
2023-05-17T01:37:11.532Z,6.90
2023-05-17T01:40:08.998Z,8.20
2023-05-17T01:42:58.769Z,10.50
2023-05-17T01:45:38.596Z,10.50
2023-05-17T01:48:32.194Z,9.00
2023-05-17T01:51:09.359Z,12.50
2023-05-17T01:54:40.228Z,21.30
2023-05-17T01:58:09.633Z,17.00
2023-05-17T02:00:46.116Z,16.00
2023-05-17T02:03:19.982Z,19.60
2023-05-17T02:06:05.675Z,22.40
2023-05-17T02:11:47.682Z,22.00
2023-05-17T02:17:06.012Z,17.00
2023-05-17T02:19:35.413Z,19.90
2023-05-17T02:22:06.805Z,20.30
2023-05-17T02:25:02.500Z,11.30
2023-05-17T02:30:37.575Z,17.60
2023-05-17T02:33:11.933Z,15.30
2023-05-17T02:35:39.938Z,10.80
2023-05-17T02:38:12.322Z,14.50
2023-05-17T02:40:56.796Z,16.90
2023-05-17T02:43:25.674Z,18.40
2023-05-17T02:45:55.165Z,13.70
2023-05-17T02:48:25.938Z,23.80
2023-05-17T02:50:53.753Z,16.10
2023-05-17T02:53:24.240Z,17.50
2023-05-17T02:55:52.184Z,14.70
2023-05-17T02:58:19.442Z,13.20
2023-05-17T03:00:49.487Z,13.50
2023-05-17T03:03:18.052Z,13.80
2023-05-17T03:06:14.464Z,10.70
2023-05-17T03:08:47.286Z,12.90
2023-05-17T03:11:15.401Z,14.00
2023-05-17T03:13:51.739Z,17.40
2023-05-17T03:16:24.130Z,7.90
2023-05-17T03:18:54.688Z,12.60
2023-05-17T03:21:25.292Z,18.80
2023-05-17T03:23:54.752Z,17.80
2023-05-17T03:26:41.641Z,15.30
2023-05-17T03:29:11.668Z,13.00
2023-05-17T03:31:41.621Z,11.40
2023-05-17T03:34:09.479Z,8.30
2023-05-17T03:36:39.330Z,10.50
2023-05-17T03:39:07.269Z,15.10
2023-05-17T03:41:42.760Z,8.90
2023-05-17T03:44:13.203Z,12.90
2023-05-17T03:47:02.972Z,12.70
2023-05-17T03:49:31.831Z,11.90
2023-05-17T03:51:59.470Z,19.70
2023-05-17T03:54:27.686Z,10.90
2023-05-17T03:57:04.199Z,13.00
2023-05-17T03:59:48.830Z,8.50
2023-05-17T04:02:19.811Z,10.90
2023-05-17T04:04:50.494Z,9.40
2023-05-17T04:07:25.376Z,8.90
2023-05-17T04:09:59.726Z,11.30
2023-05-17T04:12:40.321Z,8.30
2023-05-17T04:15:42.658Z,10.70
2023-05-17T04:18:14.444Z,10.80
2023-05-17T04:23:59.748Z,10.20
2023-05-17T04:26:35.686Z,7.80
2023-05-17T04:29:07.855Z,6.90
2023-05-17T04:31:56.301Z,10.40
2023-05-17T04:34:28.528Z,6.00
2023-05-17T04:37:19.673Z,4.40
2023-05-17T04:42:38.445Z,2.80
2023-05-17T04:45:09.503Z,5.50
2023-05-17T04:48:19.178Z,7.70
2023-05-17T04:57:20.096Z,6.40
2023-05-17T05:00:05.802Z,5.70
2023-05-17T05:02:33.945Z,3.10
2023-05-17T05:05:11.329Z,3.70
2023-05-17T05:10:33.437Z,5.10
2023-05-17T05:13:51.686Z,4.50
2023-05-17T05:23:40.114Z,6.80
2023-05-17T05:26:13.178Z,4.70
2023-05-17T06:00:52.002Z,2.70
2023-05-17T06:33:54.220Z,7.90
2023-05-17T06:36:40.757Z,10.30
2023-05-17T06:39:17.082Z,16.80
2023-05-17T06:41:59.290Z,5.80
2023-05-17T06:51:30.232Z,3.50
2023-05-17T06:54:11.672Z,8.50
2023-05-17T07:43:14.559Z,6.20
2023-05-17T08:38:23.362Z,2.60
2023-05-17T08:41:09.927Z,2.60
2023-05-17T08:55:48.015Z,3.60
2023-05-17T09:02:06.534Z,4.50
2023-05-17T09:08:16.315Z,8.20
2023-05-17T09:13:55.656Z,10.60
2023-05-17T09:16:49.554Z,2.40
2023-05-17T09:23:51.481Z,3.60
2023-05-17T09:26:56.358Z,4.20
2023-05-17T09:43:35.512Z,2.80
2023-05-17T09:46:26.384Z,10.70
2023-05-17T09:50:31.268Z,5.70
2023-05-17T10:16:40.152Z,50.70
2023-05-17T10:48:11.769Z,4.30
2023-05-17T12:39:32.273Z,3.50
2023-05-17T13:23:07.707Z,4.90
2023-05-17T14:57:38.613Z,5.10
2023-05-17T15:00:31.140Z,2.20
2023-05-17T15:03:21.960Z,3.50
2023-05-17T15:06:27.402Z,4.50
2023-05-17T15:09:10.861Z,6.10
2023-05-17T15:12:01.811Z,2.30
2023-05-17T15:15:02.137Z,2.90
2023-05-17T15:39:12.669Z,4.40
2023-05-17T16:06:56.213Z,5.60
2023-05-17T19:11:44.706Z,33.80
2023-05-17T19:42:20.643Z,13.00
2023-05-17T19:48:09.576Z,15.20
2023-05-17T20:15:17.307Z,9.60
2023-05-17T20:52:45.122Z,16.50
2023-05-17T21:15:19.231Z,14.60
2023-05-17T21:17:52.128Z,15.40
2023-05-17T21:21:01.972Z,11.70
2023-05-17T21:24:54.328Z,12.80
2023-05-17T21:27:24.622Z,10.20
2023-05-17T21:30:02.050Z,17.70
2023-05-17T21:32:44.706Z,12.60
2023-05-17T21:45:01.075Z,24.40
2023-05-17T21:47:45.479Z,17.10
2023-05-17T21:50:37.630Z,14.30
2023-05-17T21:53:09.289Z,11.80
2023-05-17T21:55:56.179Z,15.70
2023-05-17T22:02:08.155Z,10.50
2023-05-17T22:08:20.616Z,18.00
2023-05-17T22:11:02.092Z,10.50
2023-05-17T22:13:56.234Z,13.70
2023-05-17T22:16:41.612Z,9.40
2023-05-17T22:19:09.398Z,10.10
2023-05-17T22:21:39.620Z,10.20
2023-05-17T22:24:16.280Z,16.80
2023-05-17T22:26:44.092Z,24.90
2023-05-17T22:29:13.952Z,13.00
2023-05-17T22:31:48.157Z,11.10
2023-05-17T22:34:19.722Z,14.00
2023-05-17T22:36:48.722Z,15.10
2023-05-17T22:39:20.811Z,12.80
2023-05-17T22:44:37.751Z,16.90
2023-05-17T22:47:07.689Z,11.40
2023-05-17T22:49:38.323Z,16.70
2023-05-17T22:52:12.645Z,14.20
2023-05-17T22:54:43.176Z,15.80
2023-05-17T22:57:10.920Z,13.80
2023-05-17T22:59:38.615Z,13.90
2023-05-17T23:02:07.327Z,20.60
2023-05-17T23:04:40.537Z,16.70
2023-05-17T23:07:11.112Z,18.70
2023-05-17T23:09:41.104Z,17.40
2023-05-17T23:12:18.873Z,19.30
2023-05-17T23:14:48.595Z,22.00
2023-05-17T23:19:57.282Z,14.60
2023-05-17T23:22:24.885Z,14.70
2023-05-17T23:24:57.804Z,15.70
2023-05-17T23:27:42.143Z,14.10
2023-05-17T23:30:26.423Z,17.70
2023-05-17T23:33:21.605Z,22.90
2023-05-17T23:35:54.768Z,21.80
2023-05-17T23:38:30.837Z,21.80
2023-05-17T23:41:23.621Z,18.00
2023-05-17T23:44:12.629Z,16.10
2023-05-17T23:46:54.299Z,15.60
2023-05-17T23:56:25.338Z,13.80
